createdAt,value
2022-12-03T00:01:57.171Z,102244.91
2022-12-03T00:04:24.863Z,102248.50
2022-12-03T00:06:52.425Z,102250.84
2022-12-03T00:09:21.965Z,102249.44
2022-12-03T00:11:49.696Z,102254.34
2022-12-03T00:14:16.985Z,102251.59
2022-12-03T00:16:44.368Z,102267.59
2022-12-03T00:19:11.926Z,102258.28
2022-12-03T00:21:39.208Z,102287.38
2022-12-03T00:24:06.703Z,102253.69
2022-12-03T00:26:34.368Z,102284.00
2022-12-03T00:29:01.674Z,102272.38
2022-12-03T00:31:29.264Z,102282.06
2022-12-03T00:33:56.767Z,102284.38
2022-12-03T00:36:24.189Z,102305.78
2022-12-03T00:38:51.570Z,102280.03
2022-12-03T00:41:19.273Z,102288.19
2022-12-03T00:43:46.689Z,102300.06
2022-12-03T00:46:18.311Z,102283.59
2022-12-03T00:48:48.525Z,102295.69
2022-12-03T00:51:15.910Z,102303.38
2022-12-03T00:53:43.240Z,102300.78
2022-12-03T00:56:10.981Z,102306.09
2022-12-03T00:58:38.924Z,102308.34
2022-12-03T01:01:06.555Z,102299.59
2022-12-03T01:03:34.053Z,102321.59
2022-12-03T01:06:01.485Z,102306.00
2022-12-03T01:08:29.026Z,102304.47
2022-12-03T01:10:56.526Z,102308.72
2022-12-03T01:13:24.245Z,102328.44
2022-12-03T01:15:51.755Z,102324.75
2022-12-03T01:18:19.616Z,102329.22
2022-12-03T01:20:47.144Z,102317.16
2022-12-03T01:23:14.662Z,102337.03
2022-12-03T01:25:42.089Z,102338.00
2022-12-03T01:28:09.803Z,102324.66
2022-12-03T01:30:57.160Z,102331.13
2022-12-03T01:33:24.671Z,102348.78
2022-12-03T01:35:52.282Z,102335.19
2022-12-03T01:38:19.737Z,102350.97
2022-12-03T01:40:47.194Z,102339.31
2022-12-03T05:05:15.611Z,102540.88
2022-12-03T05:07:43.137Z,102547.56
2022-12-03T05:10:10.986Z,102545.53
2022-12-03T05:12:38.354Z,102549.84
2022-12-03T05:15:06.035Z,102551.56
2022-12-03T05:17:33.446Z,102553.44
2022-12-03T05:20:19.382Z,102555.56
2022-12-03T05:22:46.832Z,102562.09
2022-12-03T05:25:14.110Z,102560.56
2022-12-03T05:27:41.493Z,102569.38
2022-12-03T05:30:09.030Z,102571.09
2022-12-03T05:32:36.346Z,102553.66
2022-12-03T05:35:03.804Z,102575.97
2022-12-03T05:37:31.213Z,102566.22
2022-12-03T05:39:58.544Z,102592.13
2022-12-03T05:42:44.528Z,102563.09
2022-12-03T05:45:12.078Z,102570.47
2022-12-03T05:47:39.405Z,102581.16
2022-12-03T05:50:07.191Z,102583.97
2022-12-03T05:52:34.534Z,102582.56
2022-12-03T05:55:01.925Z,102601.56
2022-12-03T05:57:29.725Z,102594.94
2022-12-03T05:59:57.088Z,102610.69
2022-12-03T06:02:24.665Z,102604.38
2022-12-03T06:04:52.601Z,102602.66
2022-12-03T06:07:20.220Z,102606.88
2022-12-03T06:09:47.755Z,102601.34
2022-12-03T06:12:15.047Z,102607.09
2022-12-03T06:14:42.473Z,102609.56
2022-12-03T06:17:09.823Z,102610.56
2022-12-03T06:19:37.178Z,102614.47
2022-12-03T06:22:04.664Z,102622.28
2022-12-03T06:24:31.937Z,102621.72
2022-12-03T06:26:59.267Z,102617.81
2022-12-03T06:29:26.624Z,102621.06
2022-12-03T06:31:53.988Z,102617.16
2022-12-03T06:34:21.518Z,102611.97
2022-12-03T06:36:50.293Z,102622.34
2022-12-03T06:39:17.930Z,102621.28
2022-12-03T06:41:45.463Z,102621.81
2022-12-03T06:44:13.468Z,102622.09
2022-12-03T06:46:41.055Z,102628.19
2022-12-03T06:49:11.462Z,102632.66
2022-12-03T06:51:38.771Z,102635.16
2022-12-03T06:54:06.195Z,102623.94
2022-12-03T06:56:37.893Z,102632.03
2022-12-03T06:59:09.161Z,102628.31
2022-12-03T07:01:36.557Z,102625.59
2022-12-03T07:04:03.908Z,102633.28
2022-12-03T07:06:31.428Z,102635.63
2022-12-03T07:08:58.763Z,102642.13
2022-12-03T07:11:31.868Z,102634.06
2022-12-03T07:14:04.701Z,102633.41
2022-12-03T07:16:33.255Z,102618.63
2022-12-03T07:19:00.625Z,102626.94
2022-12-03T07:21:27.927Z,102624.69
2022-12-03T07:23:55.252Z,102626.53
2022-12-03T07:26:22.546Z,102612.13
2022-12-03T07:28:49.943Z,102616.91
2022-12-03T07:31:17.307Z,102644.44
2022-12-03T07:33:44.654Z,102613.69
2022-12-03T07:36:12.682Z,102625.22
2022-12-03T07:38:40.006Z,102625.88
2022-12-03T07:41:07.539Z,102634.06
2022-12-03T07:43:34.927Z,102629.25
2022-12-03T07:46:02.795Z,102642.44
2022-12-03T07:48:30.226Z,102646.38
2022-12-03T07:50:59.031Z,102641.50
2022-12-03T07:53:26.342Z,102635.13
2022-12-03T07:55:53.767Z,102634.97
2022-12-03T07:58:21.279Z,102631.19
2022-12-03T08:00:48.808Z,102630.56
2022-12-03T08:03:16.251Z,102640.28
2022-12-03T08:05:43.583Z,102638.69
2022-12-03T08:08:10.979Z,102635.69
2022-12-03T08:10:38.559Z,102631.41
2022-12-03T08:13:15.976Z,102642.69
2022-12-03T08:15:43.649Z,102626.28
2022-12-03T08:18:14.092Z,102625.72
2022-12-03T08:20:41.951Z,102628.34
2022-12-03T08:23:27.684Z,102636.28
2022-12-03T08:25:55.130Z,102624.59
2022-12-03T08:28:23.622Z,102627.47
2022-12-03T08:30:56.823Z,102618.19
2022-12-03T08:33:27.123Z,102611.03
2022-12-03T08:35:54.459Z,102622.81
2022-12-03T08:38:22.870Z,102625.22
2022-12-03T08:40:51.545Z,102616.69
2022-12-03T08:43:20.274Z,102613.03
2022-12-03T08:45:49.774Z,102628.94
2022-12-03T08:48:22.879Z,102615.94
2022-12-03T08:50:50.317Z,102612.25
2022-12-03T08:53:32.835Z,102611.81
2022-12-03T08:56:01.206Z,102606.97
2022-12-03T08:58:32.489Z,102611.63
2022-12-03T09:01:06.372Z,102616.03
2022-12-03T09:03:33.817Z,102610.91
2022-12-03T09:06:01.265Z,102623.22
2022-12-03T09:08:28.821Z,102613.66
2022-12-03T09:10:56.415Z,102600.34
2022-12-03T09:13:23.696Z,102613.34
2022-12-03T09:15:51.073Z,102609.16
2022-12-03T09:18:18.429Z,102615.69
2022-12-03T09:20:45.840Z,102612.13
2022-12-03T09:23:13.206Z,102611.81
2022-12-03T09:25:40.556Z,102619.09
2022-12-03T09:28:08.401Z,102608.06
2022-12-03T09:30:35.729Z,102607.31
2022-12-03T09:33:03.063Z,102610.66
2022-12-03T09:35:30.427Z,102620.84
2022-12-03T09:37:57.736Z,102594.50
2022-12-03T09:40:25.072Z,102595.06
2022-12-03T09:42:52.394Z,102600.34
2022-12-03T09:45:20.541Z,102612.22
2022-12-03T09:47:48.435Z,102625.69
2022-12-03T09:50:23.360Z,102600.31
2022-12-03T09:52:51.183Z,102616.22
2022-12-03T09:55:19.621Z,102608.63
2022-12-03T09:57:46.926Z,102613.25
2022-12-03T10:00:18.982Z,102605.88
2022-12-03T11:05:31.022Z,102594.47
2022-12-03T11:07:58.476Z,102607.00
2022-12-03T11:10:25.829Z,102606.03
2022-12-03T11:13:11.971Z,102589.25
2022-12-03T11:15:43.979Z,102602.13
2022-12-03T11:18:11.469Z,102589.81
2022-12-03T11:20:38.841Z,102595.13
2022-12-03T11:23:06.999Z,102586.22
2022-12-03T11:25:37.157Z,102586.41
2022-12-03T11:28:10.439Z,102580.28
2022-12-03T11:30:58.601Z,102599.28
2022-12-03T11:33:26.028Z,102581.22
2022-12-03T11:36:05.561Z,102581.59
2022-12-03T11:38:40.966Z,102579.84
2022-12-03T11:41:12.540Z,102599.72
2022-12-03T11:43:52.290Z,102587.63
2022-12-03T11:46:19.803Z,102584.47
2022-12-03T11:48:47.310Z,102585.19
2022-12-03T11:51:17.968Z,102585.28
2022-12-03T11:53:45.408Z,102582.16
2022-12-03T11:56:19.947Z,102587.06
2022-12-03T11:58:47.451Z,102603.44
2022-12-03T12:01:15.141Z,102600.78
2022-12-03T12:03:43.596Z,102593.09
2022-12-03T12:06:11.869Z,102602.41
2022-12-03T12:08:40.330Z,102601.16
2022-12-03T12:11:17.529Z,102606.28
2022-12-03T12:13:44.967Z,102595.63
2022-12-03T12:16:12.363Z,102612.16
2022-12-03T12:18:53.714Z,102615.03
2022-12-03T12:21:42.198Z,102608.69
2022-12-03T12:24:28.543Z,102618.06
2022-12-03T12:26:56.453Z,102619.88
2022-12-03T12:29:23.800Z,102617.34
2022-12-03T12:31:54.169Z,102628.06
2022-12-03T12:34:22.098Z,102630.00
2022-12-03T12:36:49.500Z,102654.63
2022-12-03T12:39:16.929Z,102624.84
2022-12-03T12:41:47.954Z,102632.06
2022-12-03T12:44:15.504Z,102629.25
2022-12-03T12:46:48.194Z,102648.31
2022-12-03T12:49:16.126Z,102637.63
2022-12-03T12:51:46.987Z,102641.78
2022-12-03T12:54:15.321Z,102654.81
2022-12-03T12:56:43.917Z,102654.91
2022-12-03T12:59:15.215Z,102662.41
2022-12-03T13:01:43.442Z,102653.94
2022-12-03T13:04:29.975Z,102658.41
2022-12-03T13:06:57.262Z,102665.19
2022-12-03T13:09:25.037Z,102657.94
2022-12-03T13:12:04.089Z,102669.81
2022-12-03T13:14:32.136Z,102668.50
2022-12-03T13:16:59.687Z,102668.28
2022-12-03T13:19:27.675Z,102669.63
2022-12-03T13:21:55.705Z,102671.59
2022-12-03T13:24:27.342Z,102672.97
2022-12-03T13:26:54.745Z,102674.97
2022-12-03T13:29:25.139Z,102682.38
2022-12-03T13:31:53.160Z,102679.41
2022-12-03T13:34:27.692Z,102674.69
2022-12-03T13:36:58.574Z,102668.53
2022-12-03T13:39:35.569Z,102676.47
2022-12-03T13:42:45.283Z,102681.44
2022-12-03T13:45:15.669Z,102679.94
2022-12-03T13:47:43.109Z,102689.59
2022-12-03T13:50:22.557Z,102684.13
2022-12-03T13:52:49.934Z,102691.81
2022-12-03T13:55:22.603Z,102697.50
2022-12-03T13:57:50.093Z,102704.03
2022-12-03T14:00:17.545Z,102709.84
2022-12-03T14:02:44.957Z,102704.41
2022-12-03T14:05:12.331Z,102715.41
2022-12-03T14:07:43.625Z,102722.44
2022-12-03T14:10:12.389Z,102736.41
2022-12-03T14:12:39.814Z,102744.22
2022-12-03T14:15:07.572Z,102735.22
2022-12-03T14:17:34.947Z,102740.13
2022-12-03T14:20:03.984Z,102739.66
2022-12-03T14:22:31.453Z,102741.53
2022-12-03T14:24:58.952Z,102741.31
2022-12-03T14:27:26.434Z,102753.09
2022-12-03T14:29:54.164Z,102731.72
2022-12-03T14:32:21.961Z,102743.94
2022-12-03T14:34:49.278Z,102750.63
2022-12-03T14:37:16.699Z,102752.41
2022-12-03T14:39:44.210Z,102757.84
2022-12-03T14:42:14.455Z,102746.75
2022-12-03T14:44:42.680Z,102755.53
2022-12-03T14:47:10.156Z,102753.06
2022-12-03T14:49:37.582Z,102756.19
2022-12-03T14:52:08.490Z,102775.25
2022-12-03T14:54:44.683Z,102754.94
2022-12-03T14:57:15.740Z,102765.88
2022-12-03T14:59:43.353Z,102757.22
2022-12-03T15:02:11.234Z,102759.44
2022-12-03T15:04:39.002Z,102770.28
2022-12-03T15:07:06.634Z,102771.91
2022-12-03T15:09:34.285Z,102770.09
2022-12-03T15:12:03.649Z,102762.50
2022-12-03T15:14:31.146Z,102767.81
2022-12-03T15:16:58.619Z,102758.16
2022-12-03T15:19:26.086Z,102779.53
2022-12-03T15:21:53.626Z,102772.06
2022-12-03T15:24:21.134Z,102784.22
2022-12-03T15:26:49.345Z,102780.28
2022-12-03T15:29:16.716Z,102790.72
2022-12-03T15:31:44.697Z,102791.94
2022-12-03T15:34:14.952Z,102789.84
2022-12-03T15:36:44.782Z,102796.78
2022-12-03T15:39:12.371Z,102792.44
2022-12-03T15:41:39.676Z,102800.50
2022-12-03T15:44:07.224Z,102807.56
2022-12-03T15:46:34.769Z,102809.19
2022-12-03T15:49:02.152Z,102815.03
2022-12-03T15:51:29.648Z,102811.69
2022-12-03T15:53:57.005Z,102814.69
2022-12-03T15:56:25.781Z,102824.97
2022-12-03T15:58:53.815Z,102820.97
2022-12-03T16:01:23.318Z,102833.13
2022-12-03T16:03:50.945Z,102833.44
2022-12-03T16:06:19.759Z,102832.69
2022-12-03T16:08:48.263Z,102843.81
2022-12-03T16:11:15.718Z,102843.34
2022-12-03T16:13:43.098Z,102845.53
2022-12-03T16:16:10.656Z,102846.50
2022-12-03T16:18:41.195Z,102843.34
2022-12-03T16:21:08.560Z,102856.59
2022-12-03T16:23:38.308Z,102856.81
2022-12-03T16:26:05.710Z,102872.22
2022-12-03T16:28:33.189Z,102869.03
2022-12-03T16:31:00.626Z,102879.28
2022-12-03T16:33:28.309Z,102867.00
2022-12-03T16:35:55.690Z,102875.69
2022-12-03T16:38:23.101Z,102876.97
2022-12-03T16:40:50.675Z,102869.59
2022-12-03T16:43:18.018Z,102871.56
2022-12-03T16:46:02.666Z,102863.63
2022-12-03T16:48:30.417Z,102867.19
2022-12-03T16:50:57.803Z,102867.19
2022-12-03T16:53:25.147Z,102875.88
2022-12-03T16:55:52.518Z,102882.19
2022-12-03T16:58:21.527Z,102870.16
2022-12-03T17:00:49.277Z,102877.25
2022-12-03T17:03:18.041Z,102885.19
2022-12-03T17:05:45.654Z,102884.00
2022-12-03T17:08:13.407Z,102885.41
2022-12-03T17:10:41.092Z,102889.22
2022-12-03T17:13:10.557Z,102898.47
2022-12-03T17:15:38.624Z,102896.53
2022-12-03T17:18:06.501Z,102899.53
2022-12-03T17:20:34.076Z,102911.16
2022-12-03T17:23:01.487Z,102903.78
2022-12-03T17:25:28.981Z,102889.06
2022-12-03T17:27:56.310Z,102910.38
2022-12-03T17:30:23.588Z,102900.38
2022-12-03T17:32:51.108Z,102902.22
2022-12-03T17:35:18.542Z,102916.50
2022-12-03T17:37:46.200Z,102916.19
2022-12-03T17:40:13.886Z,102909.22
2022-12-03T17:42:41.296Z,102909.69
2022-12-03T17:45:08.857Z,102912.88
2022-12-03T17:47:36.306Z,102901.91
2022-12-03T17:50:03.711Z,102904.41
2022-12-03T17:52:31.395Z,102908.81
2022-12-03T17:55:23.636Z,102908.44
2022-12-03T17:57:46.283Z,102904.00
2022-12-03T18:00:13.764Z,102912.53
2022-12-03T18:02:42.378Z,102920.88
2022-12-03T18:05:10.020Z,102903.47
2022-12-03T18:07:38.175Z,102923.81
2022-12-03T18:10:05.955Z,102938.34
2022-12-03T18:12:35.177Z,102921.91
2022-12-03T18:15:02.555Z,102935.69
2022-12-03T18:17:30.225Z,102916.13
2022-12-03T18:19:58.044Z,102928.81
2022-12-03T18:22:27.725Z,102936.00
2022-12-03T18:24:55.364Z,102938.53
2022-12-03T18:27:22.921Z,102927.72
2022-12-03T18:29:50.556Z,102926.31
2022-12-03T18:32:28.920Z,102927.06
2022-12-03T18:34:57.243Z,102918.34
2022-12-03T18:37:26.355Z,102934.63
2022-12-03T18:39:54.057Z,102928.44
2022-12-03T18:42:23.088Z,102923.25
2022-12-03T18:44:51.441Z,102910.56
2022-12-03T18:47:26.695Z,102918.00
2022-12-03T18:49:54.366Z,102921.00
2022-12-03T18:52:22.411Z,102920.91
2022-12-03T18:54:50.180Z,102926.25
2022-12-03T18:57:18.080Z,102926.22
2022-12-03T18:59:45.503Z,102934.25
2022-12-03T19:02:26.680Z,102930.59
2022-12-03T19:05:02.648Z,102941.25
2022-12-03T19:07:30.341Z,102944.72
2022-12-03T22:16:04.368Z,103040.97
2022-12-03T22:18:32.003Z,103040.09
2022-12-03T22:21:02.270Z,103038.31
2022-12-03T22:23:30.447Z,103037.69
2022-12-03T22:26:00.972Z,103029.78
2022-12-03T22:28:28.838Z,103036.81
2022-12-03T22:30:56.695Z,103032.44
2022-12-03T22:33:24.431Z,103044.03
2022-12-03T22:36:01.787Z,103031.16
2022-12-03T22:38:31.126Z,103024.41
2022-12-03T22:40:58.583Z,103026.13
2022-12-03T22:43:29.276Z,103014.91
2022-12-03T22:46:04.641Z,103022.25
2022-12-03T22:48:35.510Z,103012.34
2022-12-03T22:51:03.004Z,103018.22
2022-12-03T22:53:30.580Z,103026.38
2022-12-03T22:55:58.729Z,103031.06
2022-12-03T22:58:26.320Z,103034.50
2022-12-03T23:00:56.286Z,103033.66
2022-12-03T23:03:27.338Z,103036.66
2022-12-03T23:05:54.682Z,103039.41
2022-12-03T23:08:24.847Z,103035.00
2022-12-03T23:10:54.663Z,103043.28
2022-12-03T23:13:22.024Z,103037.78
2022-12-03T23:15:50.808Z,103029.28
2022-12-03T23:18:19.289Z,103043.75
2022-12-03T23:20:50.629Z,103022.53
2022-12-03T23:23:18.320Z,103033.16
2022-12-03T23:25:55.999Z,103050.53
2022-12-03T23:28:23.589Z,103043.13
2022-12-03T23:30:51.012Z,103045.91
2022-12-03T23:33:19.082Z,103050.28
2022-12-03T23:35:46.599Z,103049.75
2022-12-03T23:38:13.934Z,103055.72
2022-12-03T23:40:47.699Z,103041.72
2022-12-03T23:43:16.193Z,103064.44
2022-12-03T23:45:43.569Z,103048.72
2022-12-03T23:48:10.898Z,103046.72
2022-12-03T23:50:41.527Z,103060.03
2022-12-03T23:53:09.169Z,103053.75
2022-12-03T23:55:39.030Z,103056.56
2022-12-03T23:58:06.882Z,103064.19
